LFMV/AVN METAR and TAF weather

Enter ICAO airport designator
Station Type Date Time Source
LFMV METAR 2021/06/25 04:00 UTC NOAA

LFMV 250400Z AUTO 34012KT CAVOK 17/11 Q1019 TEMPO 24015G30KT


Station Type Date Time Source
LFMV Decoded METAR 2021/06/25 04:00 UTC NOAA

Station name not available
Jun 25, 2021 - 12:00 AM EDT / 2021.06.25 0400 UTC
Wind: from the NNW (340 degrees) at 14 MPH (12 KT):0
Visibility: greater than 7 mile(s):0
Temperature: 62 F (17 C)
Dew Point: 51 F (11 C)
Relative Humidity: 67%
Pressure (altimeter): 30.09 in. Hg (1019 hPa)
ob: LFMV 250400Z AUTO 34012KT CAVOK 17/11 Q1019 TEMPO 24015G30KT
cycle: 4

Station Type Date Time Source
LFMV TAF 2021/06/25 03:00 UTC NOAA

TAF LFMV 250200Z 2503/2603 34012KT CAVOK
TEMPO 2503/2515 24015G30KT

Example: see airport list